sensor_id;sensor_type;location;lat;lon;timestamp;P1;durP1;ratioP1;P2;durP2;ratioP2
70667;SDS011;58242;51.250;-1.118;2022-12-29T00:02:15;12.52;;;4.53;;
70667;SDS011;58242;51.250;-1.118;2022-12-29T00:04:41;11.23;;;4.15;;
70667;SDS011;58242;51.250;-1.118;2022-12-29T00:07:07;11.68;;;4.68;;
70667;SDS011;58242;51.250;-1.118;2022-12-29T00:09:32;9.32;;;4.35;;
70667;SDS011;58242;51.250;-1.118;2022-12-29T00:11:58;11.50;;;3.72;;
70667;SDS011;58242;51.250;-1.118;2022-12-29T00:14:24;9.48;;;4.03;;
70667;SDS011;58242;51.250;-1.118;2022-12-29T00:17:08;21.33;;;4.97;;
70667;SDS011;58242;51.250;-1.118;2022-12-29T00:19:34;19.95;;;5.43;;
70667;SDS011;58242;51.250;-1.118;2022-12-29T00:22:18;13.88;;;4.72;;
70667;SDS011;58242;51.250;-1.118;2022-12-29T00:25:03;15.13;;;4.30;;
70667;SDS011;58242;51.250;-1.118;2022-12-29T00:27:47;21.00;;;5.82;;
70667;SDS011;58242;51.250;-1.118;2022-12-29T00:30:31;12.80;;;5.30;;
70667;SDS011;58242;51.250;-1.118;2022-12-29T00:33:15;10.35;;;4.03;;
70667;SDS011;58242;51.250;-1.118;2022-12-29T00:38:35;21.30;;;4.07;;
70667;SDS011;58242;51.250;-1.118;2022-12-29T00:41:23;15.68;;;5.10;;
70667;SDS011;58242;51.250;-1.118;2022-12-29T00:44:07;17.77;;;5.00;;
70667;SDS011;58242;51.250;-1.118;2022-12-29T00:46:36;14.90;;;4.88;;
70667;SDS011;58242;51.250;-1.118;2022-12-29T00:49:03;10.15;;;4.75;;
70667;SDS011;58242;51.250;-1.118;2022-12-29T00:51:49;16.50;;;4.60;;
70667;SDS011;58242;51.250;-1.118;2022-12-29T00:54:15;14.35;;;4.93;;
70667;SDS011;58242;51.250;-1.118;2022-12-29T00:56:41;12.05;;;4.63;;
70667;SDS011;58242;51.250;-1.118;2022-12-29T00:59:07;10.75;;;4.38;;
70667;SDS011;58242;51.250;-1.118;2022-12-29T01:01:34;8.90;;;4.18;;
70667;SDS011;58242;51.250;-1.118;2022-12-29T01:04:00;11.07;;;3.80;;
70667;SDS011;58242;51.250;-1.118;2022-12-29T01:06:26;9.35;;;3.88;;
70667;SDS011;58242;51.250;-1.118;2022-12-29T01:08:51;6.53;;;3.40;;
70667;SDS011;58242;51.250;-1.118;2022-12-29T01:11:37;8.00;;;3.20;;
70667;SDS011;58242;51.250;-1.118;2022-12-29T01:14:04;14.02;;;4.53;;
70667;SDS011;58242;51.250;-1.118;2022-12-29T01:16:30;9.95;;;3.30;;
70667;SDS011;58242;51.250;-1.118;2022-12-29T01:18:55;10.40;;;3.55;;
70667;SDS011;58242;51.250;-1.118;2022-12-29T01:21:21;7.35;;;3.55;;
70667;SDS011;58242;51.250;-1.118;2022-12-29T01:23:46;8.88;;;3.78;;
70667;SDS011;58242;51.250;-1.118;2022-12-29T01:26:12;8.75;;;3.63;;
70667;SDS011;58242;51.250;-1.118;2022-12-29T01:28:39;8.07;;;3.70;;
70667;SDS011;58242;51.250;-1.118;2022-12-29T01:31:05;12.70;;;4.50;;
70667;SDS011;58242;51.250;-1.118;2022-12-29T01:33:31;10.80;;;4.18;;
70667;SDS011;58242;51.250;-1.118;2022-12-29T01:36:09;17.67;;;5.00;;
70667;SDS011;58242;51.250;-1.118;2022-12-29T01:38:38;22.10;;;5.45;;
70667;SDS011;58242;51.250;-1.118;2022-12-29T01:41:04;15.32;;;4.55;;
70667;SDS011;58242;51.250;-1.118;2022-12-29T01:43:50;9.05;;;3.75;;
70667;SDS011;58242;51.250;-1.118;2022-12-29T01:46:37;13.07;;;4.45;;
70667;SDS011;58242;51.250;-1.118;2022-12-29T01:49:12;9.18;;;4.22;;
70667;SDS011;58242;51.250;-1.118;2022-12-29T01:51:44;20.88;;;4.97;;
70667;SDS011;58242;51.250;-1.118;2022-12-29T01:54:15;19.08;;;4.65;;
70667;SDS011;58242;51.250;-1.118;2022-12-29T01:56:45;20.67;;;5.55;;
70667;SDS011;58242;51.250;-1.118;2022-12-29T01:59:12;18.75;;;5.40;;
70667;SDS011;58242;51.250;-1.118;2022-12-29T02:01:42;12.40;;;4.95;;
70667;SDS011;58242;51.250;-1.118;2022-12-29T02:04:09;11.63;;;4.63;;
70667;SDS011;58242;51.250;-1.118;2022-12-29T02:06:39;6.27;;;3.80;;
70667;SDS011;58242;51.250;-1.118;2022-12-29T02:09:18;14.18;;;4.70;;
70667;SDS011;58242;51.250;-1.118;2022-12-29T02:11:44;9.35;;;4.10;;
70667;SDS011;58242;51.250;-1.118;2022-12-29T02:14:11;15.65;;;4.72;;
70667;SDS011;58242;51.250;-1.118;2022-12-29T02:22:18;24.50;;;6.95;;
70667;SDS011;58242;51.250;-1.118;2022-12-29T02:41:08;21.10;;;5.38;;
70667;SDS011;58242;51.250;-1.118;2022-12-29T02:43:49;19.13;;;5.82;;
70667;SDS011;58242;51.250;-1.118;2022-12-29T02:51:46;10.68;;;4.88;;
70667;SDS011;58242;51.250;-1.118;2022-12-29T02:54:18;17.35;;;5.35;;
70667;SDS011;58242;51.250;-1.118;2022-12-29T02:57:03;22.90;;;6.13;;
70667;SDS011;58242;51.250;-1.118;2022-12-29T02:59:29;12.15;;;4.97;;
70667;SDS011;58242;51.250;-1.118;2022-12-29T03:02:03;17.17;;;4.93;;
70667;SDS011;58242;51.250;-1.118;2022-12-29T03:12:30;13.07;;;4.78;;
70667;SDS011;58242;51.250;-1.118;2022-12-29T03:15:28;18.95;;;5.18;;
70667;SDS011;58242;51.250;-1.118;2022-12-29T03:18:22;13.68;;;5.38;;
70667;SDS011;58242;51.250;-1.118;2022-12-29T03:20:54;23.13;;;6.65;;
70667;SDS011;58242;51.250;-1.118;2022-12-29T03:23:25;22.00;;;5.43;;
70667;SDS011;58242;51.250;-1.118;2022-12-29T03:25:53;12.18;;;5.00;;
70667;SDS011;58242;51.250;-1.118;2022-12-29T03:28:24;20.80;;;6.10;;
70667;SDS011;58242;51.250;-1.118;2022-12-29T03:30:54;13.40;;;4.88;;
70667;SDS011;58242;51.250;-1.118;2022-12-29T03:33:23;13.38;;;5.10;;
70667;SDS011;58242;51.250;-1.118;2022-12-29T03:35:51;12.55;;;5.28;;
70667;SDS011;58242;51.250;-1.118;2022-12-29T03:38:23;21.63;;;6.20;;
70667;SDS011;58242;51.250;-1.118;2022-12-29T03:40:52;16.05;;;5.82;;
70667;SDS011;58242;51.250;-1.118;2022-12-29T03:43:20;13.90;;;4.82;;
70667;SDS011;58242;51.250;-1.118;2022-12-29T03:45:46;13.43;;;5.63;;
70667;SDS011;58242;51.250;-1.118;2022-12-29T03:48:12;14.18;;;4.78;;
70667;SDS011;58242;51.250;-1.118;2022-12-29T03:50:37;19.77;;;5.30;;
70667;SDS011;58242;51.250;-1.118;2022-12-29T03:53:02;21.85;;;5.28;;
70667;SDS011;58242;51.250;-1.118;2022-12-29T03:55:28;14.20;;;4.88;;
70667;SDS011;58242;51.250;-1.118;2022-12-29T03:57:53;12.00;;;4.75;;
70667;SDS011;58242;51.250;-1.118;2022-12-29T04:00:18;14.82;;;5.00;;
70667;SDS011;58242;51.250;-1.118;2022-12-29T04:02:44;20.30;;;4.78;;
70667;SDS011;58242;51.250;-1.118;2022-12-29T04:05:09;14.75;;;5.10;;
70667;SDS011;58242;51.250;-1.118;2022-12-29T04:07:34;12.63;;;4.78;;
70667;SDS011;58242;51.250;-1.118;2022-12-29T04:10:00;12.57;;;4.90;;
70667;SDS011;58242;51.250;-1.118;2022-12-29T04:12:25;14.25;;;4.30;;
70667;SDS011;58242;51.250;-1.118;2022-12-29T04:14:50;13.57;;;5.45;;
70667;SDS011;58242;51.250;-1.118;2022-12-29T04:17:16;14.75;;;4.63;;
70667;SDS011;58242;51.250;-1.118;2022-12-29T04:19:41;12.23;;;4.85;;
70667;SDS011;58242;51.250;-1.118;2022-12-29T04:22:06;14.05;;;5.63;;
70667;SDS011;58242;51.250;-1.118;2022-12-29T04:24:32;17.77;;;4.90;;
70667;SDS011;58242;51.250;-1.118;2022-12-29T04:26:57;11.57;;;4.43;;
70667;SDS011;58242;51.250;-1.118;2022-12-29T04:29:22;17.55;;;5.55;;
70667;SDS011;58242;51.250;-1.118;2022-12-29T04:31:48;20.10;;;6.00;;
70667;SDS011;58242;51.250;-1.118;2022-12-29T04:34:13;13.45;;;4.70;;
70667;SDS011;58242;51.250;-1.118;2022-12-29T04:36:38;12.13;;;5.15;;
70667;SDS011;58242;51.250;-1.118;2022-12-29T04:39:05;13.65;;;5.22;;
70667;SDS011;58242;51.250;-1.118;2022-12-29T04:41:30;17.27;;;5.10;;
70667;SDS011;58242;51.250;-1.118;2022-12-29T04:43:56;16.95;;;5.63;;
70667;SDS011;58242;51.250;-1.118;2022-12-29T04:46:21;16.13;;;5.45;;
70667;SDS011;58242;51.250;-1.118;2022-12-29T04:48:46;8.75;;;4.13;;
70667;SDS011;58242;51.250;-1.118;2022-12-29T04:51:12;10.90;;;4.40;;
70667;SDS011;58242;51.250;-1.118;2022-12-29T04:53:37;11.60;;;4.57;;
70667;SDS011;58242;51.250;-1.118;2022-12-29T04:56:03;18.95;;;4.75;;
70667;SDS011;58242;51.250;-1.118;2022-12-29T04:58:28;11.90;;;4.05;;
70667;SDS011;58242;51.250;-1.118;2022-12-29T05:00:54;12.35;;;3.63;;
70667;SDS011;58242;51.250;-1.118;2022-12-29T05:03:20;7.03;;;3.67;;
70667;SDS011;58242;51.250;-1.118;2022-12-29T05:05:45;11.15;;;4.05;;
70667;SDS011;58242;51.250;-1.118;2022-12-29T05:08:10;13.38;;;3.85;;
70667;SDS011;58242;51.250;-1.118;2022-12-29T05:10:35;8.18;;;3.70;;
70667;SDS011;58242;51.250;-1.118;2022-12-29T05:13:01;8.52;;;3.28;;
70667;SDS011;58242;51.250;-1.118;2022-12-29T05:15:26;7.78;;;4.07;;
70667;SDS011;58242;51.250;-1.118;2022-12-29T05:17:52;5.35;;;2.72;;
70667;SDS011;58242;51.250;-1.118;2022-12-29T05:20:17;7.00;;;3.15;;
70667;SDS011;58242;51.250;-1.118;2022-12-29T05:22:42;7.18;;;2.92;;
70667;SDS011;58242;51.250;-1.118;2022-12-29T05:25:08;4.25;;;2.85;;
70667;SDS011;58242;51.250;-1.118;2022-12-29T05:27:34;6.03;;;2.95;;
70667;SDS011;58242;51.250;-1.118;2022-12-29T05:29:59;5.28;;;3.20;;
70667;SDS011;58242;51.250;-1.118;2022-12-29T05:32:24;5.80;;;2.80;;
70667;SDS011;58242;51.250;-1.118;2022-12-29T05:34:50;4.68;;;2.63;;
70667;SDS011;58242;51.250;-1.118;2022-12-29T05:37:15;6.10;;;3.10;;
70667;SDS011;58242;51.250;-1.118;2022-12-29T05:39:40;5.10;;;3.22;;
70667;SDS011;58242;51.250;-1.118;2022-12-29T05:42:06;5.65;;;2.72;;
70667;SDS011;58242;51.250;-1.118;2022-12-29T05:44:31;3.88;;;2.95;;
70667;SDS011;58242;51.250;-1.118;2022-12-29T05:46:56;4.28;;;2.92;;
70667;SDS011;58242;51.250;-1.118;2022-12-29T05:49:21;5.13;;;3.00;;
70667;SDS011;58242;51.250;-1.118;2022-12-29T05:51:47;7.68;;;2.65;;
70667;SDS011;58242;51.250;-1.118;2022-12-29T05:54:12;7.35;;;3.30;;
70667;SDS011;58242;51.250;-1.118;2022-12-29T05:56:37;6.47;;;2.70;;
70667;SDS011;58242;51.250;-1.118;2022-12-29T05:59:03;4.75;;;3.03;;
70667;SDS011;58242;51.250;-1.118;2022-12-29T06:01:28;5.60;;;2.67;;
70667;SDS011;58242;51.250;-1.118;2022-12-29T06:03:53;5.05;;;3.00;;
70667;SDS011;58242;51.250;-1.118;2022-12-29T06:06:19;6.72;;;3.10;;
70667;SDS011;58242;51.250;-1.118;2022-12-29T06:08:44;10.82;;;2.70;;
70667;SDS011;58242;51.250;-1.118;2022-12-29T06:11:10;2.45;;;2.25;;
70667;SDS011;58242;51.250;-1.118;2022-12-29T06:13:35;3.95;;;2.72;;
70667;SDS011;58242;51.250;-1.118;2022-12-29T06:16:00;3.17;;;2.70;;
70667;SDS011;58242;51.250;-1.118;2022-12-29T06:18:26;7.00;;;3.20;;
70667;SDS011;58242;51.250;-1.118;2022-12-29T06:20:52;7.95;;;2.90;;
70667;SDS011;58242;51.250;-1.118;2022-12-29T06:23:17;3.55;;;2.50;;
70667;SDS011;58242;51.250;-1.118;2022-12-29T06:25:43;3.92;;;2.50;;
70667;SDS011;58242;51.250;-1.118;2022-12-29T06:28:09;5.82;;;2.78;;
70667;SDS011;58242;51.250;-1.118;2022-12-29T06:30:35;3.95;;;2.78;;
70667;SDS011;58242;51.250;-1.118;2022-12-29T06:33:01;7.63;;;3.00;;
70667;SDS011;58242;51.250;-1.118;2022-12-29T06:35:27;5.65;;;3.33;;
70667;SDS011;58242;51.250;-1.118;2022-12-29T06:37:52;4.43;;;2.70;;
70667;SDS011;58242;51.250;-1.118;2022-12-29T06:40:17;2.70;;;2.50;;
70667;SDS011;58242;51.250;-1.118;2022-12-29T06:42:43;3.50;;;2.72;;
70667;SDS011;58242;51.250;-1.118;2022-12-29T06:45:08;3.28;;;2.80;;
70667;SDS011;58242;51.250;-1.118;2022-12-29T06:47:34;3.78;;;2.60;;
70667;SDS011;58242;51.250;-1.118;2022-12-29T06:50:00;4.57;;;2.97;;
70667;SDS011;58242;51.250;-1.118;2022-12-29T06:52:25;3.22;;;2.50;;
70667;SDS011;58242;51.250;-1.118;2022-12-29T06:54:51;4.30;;;2.90;;
70667;SDS011;58242;51.250;-1.118;2022-12-29T06:57:16;3.60;;;3.30;;
70667;SDS011;58242;51.250;-1.118;2022-12-29T06:59:42;4.60;;;3.10;;
70667;SDS011;58242;51.250;-1.118;2022-12-29T07:02:08;3.03;;;2.72;;
70667;SDS011;58242;51.250;-1.118;2022-12-29T07:04:35;3.60;;;2.70;;
70667;SDS011;58242;51.250;-1.118;2022-12-29T07:07:00;3.03;;;2.70;;
70667;SDS011;58242;51.250;-1.118;2022-12-29T07:09:25;3.08;;;2.50;;
70667;SDS011;58242;51.250;-1.118;2022-12-29T07:11:51;4.70;;;2.70;;
70667;SDS011;58242;51.250;-1.118;2022-12-29T07:14:16;3.97;;;2.60;;
70667;SDS011;58242;51.250;-1.118;2022-12-29T07:16:41;4.65;;;2.40;;
70667;SDS011;58242;51.250;-1.118;2022-12-29T07:19:07;2.83;;;2.63;;
70667;SDS011;58242;51.250;-1.118;2022-12-29T07:21:32;3.10;;;2.80;;
70667;SDS011;58242;51.250;-1.118;2022-12-29T07:23:57;2.60;;;2.40;;
70667;SDS011;58242;51.250;-1.118;2022-12-29T07:26:23;2.70;;;2.50;;
70667;SDS011;58242;51.250;-1.118;2022-12-29T07:28:49;2.35;;;2.13;;
70667;SDS011;58242;51.250;-1.118;2022-12-29T07:31:15;2.63;;;2.42;;
70667;SDS011;58242;51.250;-1.118;2022-12-29T07:33:45;2.90;;;2.30;;
70667;SDS011;58242;51.250;-1.118;2022-12-29T07:36:11;2.72;;;2.58;;
70667;SDS011;58242;51.250;-1.118;2022-12-29T07:38:37;2.60;;;2.50;;
70667;SDS011;58242;51.250;-1.118;2022-12-29T07:41:03;2.55;;;2.33;;
70667;SDS011;58242;51.250;-1.118;2022-12-29T07:43:28;2.50;;;2.30;;
70667;SDS011;58242;51.250;-1.118;2022-12-29T07:45:54;2.55;;;2.30;;
70667;SDS011;58242;51.250;-1.118;2022-12-29T07:48:19;2.75;;;2.55;;
70667;SDS011;58242;51.250;-1.118;2022-12-29T07:50:44;4.93;;;2.80;;
70667;SDS011;58242;51.250;-1.118;2022-12-29T07:53:10;4.70;;;2.80;;
70667;SDS011;58242;51.250;-1.118;2022-12-29T07:55:35;5.80;;;2.70;;
70667;SDS011;58242;51.250;-1.118;2022-12-29T07:58:00;4.05;;;2.50;;
70667;SDS011;58242;51.250;-1.118;2022-12-29T08:00:26;4.00;;;2.60;;
70667;SDS011;58242;51.250;-1.118;2022-12-29T08:02:51;3.13;;;2.80;;
70667;SDS011;58242;51.250;-1.118;2022-12-29T08:05:17;7.20;;;2.90;;
70667;SDS011;58242;51.250;-1.118;2022-12-29T08:07:43;2.78;;;2.47;;
70667;SDS011;58242;51.250;-1.118;2022-12-29T08:10:09;3.15;;;2.70;;
70667;SDS011;58242;51.250;-1.118;2022-12-29T08:12:35;2.83;;;2.63;;
70667;SDS011;58242;51.250;-1.118;2022-12-29T08:15:02;3.17;;;2.70;;
70667;SDS011;58242;51.250;-1.118;2022-12-29T08:17:28;2.72;;;2.53;;
70667;SDS011;58242;51.250;-1.118;2022-12-29T08:19:53;2.40;;;2.20;;
70667;SDS011;58242;51.250;-1.118;2022-12-29T08:22:18;4.10;;;2.60;;
70667;SDS011;58242;51.250;-1.118;2022-12-29T08:24:44;4.63;;;2.85;;
70667;SDS011;58242;51.250;-1.118;2022-12-29T08:27:09;3.20;;;3.00;;
70667;SDS011;58242;51.250;-1.118;2022-12-29T08:29:35;4.60;;;2.97;;
70667;SDS011;58242;51.250;-1.118;2022-12-29T08:32:00;5.75;;;2.70;;
70667;SDS011;58242;51.250;-1.118;2022-12-29T08:34:25;4.82;;;3.33;;
70667;SDS011;58242;51.250;-1.118;2022-12-29T08:36:50;6.03;;;2.60;;
70667;SDS011;58242;51.250;-1.118;2022-12-29T08:39:16;4.53;;;3.10;;
70667;SDS011;58242;51.250;-1.118;2022-12-29T08:41:41;3.33;;;3.03;;
70667;SDS011;58242;51.250;-1.118;2022-12-29T08:44:07;3.90;;;2.80;;
70667;SDS011;58242;51.250;-1.118;2022-12-29T08:46:33;4.20;;;3.08;;
70667;SDS011;58242;51.250;-1.118;2022-12-29T08:48:58;6.50;;;3.03;;
70667;SDS011;58242;51.250;-1.118;2022-12-29T08:51:23;4.15;;;2.72;;
70667;SDS011;58242;51.250;-1.118;2022-12-29T08:53:48;3.92;;;2.80;;
70667;SDS011;58242;51.250;-1.118;2022-12-29T08:56:14;7.43;;;3.50;;
70667;SDS011;58242;51.250;-1.118;2022-12-29T08:58:39;4.03;;;2.67;;
70667;SDS011;58242;51.250;-1.118;2022-12-29T09:01:05;6.03;;;2.90;;
70667;SDS011;58242;51.250;-1.118;2022-12-29T09:03:31;4.65;;;2.90;;
70667;SDS011;58242;51.250;-1.118;2022-12-29T09:05:56;5.40;;;3.08;;
70667;SDS011;58242;51.250;-1.118;2022-12-29T09:08:21;4.63;;;2.65;;
70667;SDS011;58242;51.250;-1.118;2022-12-29T09:10:47;3.10;;;2.45;;
70667;SDS011;58242;51.250;-1.118;2022-12-29T09:13:14;2.25;;;2.15;;
70667;SDS011;58242;51.250;-1.118;2022-12-29T09:15:39;2.97;;;2.40;;
70667;SDS011;58242;51.250;-1.118;2022-12-29T09:18:06;2.30;;;2.20;;
70667;SDS011;58242;51.250;-1.118;2022-12-29T09:20:32;4.03;;;2.60;;
70667;SDS011;58242;51.250;-1.118;2022-12-29T09:22:58;4.78;;;2.67;;
70667;SDS011;58242;51.250;-1.118;2022-12-29T09:25:24;3.35;;;2.65;;
70667;SDS011;58242;51.250;-1.118;2022-12-29T09:27:49;2.97;;;2.67;;
70667;SDS011;58242;51.250;-1.118;2022-12-29T09:30:17;3.75;;;2.50;;
70667;SDS011;58242;51.250;-1.118;2022-12-29T09:32:43;4.82;;;2.40;;
70667;SDS011;58242;51.250;-1.118;2022-12-29T09:35:08;3.65;;;2.50;;
70667;SDS011;58242;51.250;-1.118;2022-12-29T09:37:33;4.00;;;2.45;;
70667;SDS011;58242;51.250;-1.118;2022-12-29T09:39:58;5.97;;;3.10;;
70667;SDS011;58242;51.250;-1.118;2022-12-29T09:42:41;3.20;;;2.70;;
70667;SDS011;58242;51.250;-1.118;2022-12-29T09:45:17;4.28;;;2.65;;
70667;SDS011;58242;51.250;-1.118;2022-12-29T09:47:49;3.80;;;2.35;;
70667;SDS011;58242;51.250;-1.118;2022-12-29T09:55:38;2.55;;;2.38;;
70667;SDS011;58242;51.250;-1.118;2022-12-29T09:58:10;4.85;;;2.30;;
70667;SDS011;58242;51.250;-1.118;2022-12-29T10:12:13;3.30;;;2.35;;
70667;SDS011;58242;51.250;-1.118;2022-12-29T10:18:16;4.85;;;2.40;;
70667;SDS011;58242;51.250;-1.118;2022-12-29T10:20:38;5.00;;;2.95;;
70667;SDS011;58242;51.250;-1.118;2022-12-29T10:26:00;4.53;;;2.60;;
70667;SDS011;58242;51.250;-1.118;2022-12-29T10:28:34;2.95;;;2.55;;
70667;SDS011;58242;51.250;-1.118;2022-12-29T10:31:16;4.93;;;3.30;;
70667;SDS011;58242;51.250;-1.118;2022-12-29T10:33:49;2.60;;;2.33;;
70667;SDS011;58242;51.250;-1.118;2022-12-29T10:36:28;4.32;;;3.20;;
70667;SDS011;58242;51.250;-1.118;2022-12-29T10:41:57;4.20;;;3.70;;
70667;SDS011;58242;51.250;-1.118;2022-12-29T10:44:30;5.07;;;3.33;;
70667;SDS011;58242;51.250;-1.118;2022-12-29T10:46:58;4.53;;;4.10;;
70667;SDS011;58242;51.250;-1.118;2022-12-29T10:49:26;11.60;;;4.70;;
70667;SDS011;58242;51.250;-1.118;2022-12-29T10:51:56;4.80;;;4.32;;
70667;SDS011;58242;51.250;-1.118;2022-12-29T10:57:26;5.90;;;3.90;;
70667;SDS011;58242;51.250;-1.118;2022-12-29T10:59:56;3.30;;;3.00;;
70667;SDS011;58242;51.250;-1.118;2022-12-29T11:02:32;3.00;;;2.55;;
70667;SDS011;58242;51.250;-1.118;2022-12-29T11:07:46;4.72;;;3.25;;
70667;SDS011;58242;51.250;-1.118;2022-12-29T11:10:30;7.40;;;4.70;;
70667;SDS011;58242;51.250;-1.118;2022-12-29T11:13:13;6.45;;;5.07;;
70667;SDS011;58242;51.250;-1.118;2022-12-29T11:15:44;4.45;;;4.05;;
70667;SDS011;58242;51.250;-1.118;2022-12-29T11:18:26;5.05;;;4.47;;
70667;SDS011;58242;51.250;-1.118;2022-12-29T11:20:58;12.85;;;4.95;;
70667;SDS011;58242;51.250;-1.118;2022-12-29T11:23:35;5.30;;;3.03;;
70667;SDS011;58242;51.250;-1.118;2022-12-29T11:28:41;5.78;;;4.53;;
70667;SDS011;58242;51.250;-1.118;2022-12-29T11:31:15;6.85;;;4.68;;
70667;SDS011;58242;51.250;-1.118;2022-12-29T11:33:41;4.55;;;4.00;;
70667;SDS011;58242;51.250;-1.118;2022-12-29T11:36:16;5.63;;;3.65;;
70667;SDS011;58242;51.250;-1.118;2022-12-29T11:38:51;8.07;;;4.05;;
70667;SDS011;58242;51.250;-1.118;2022-12-29T11:41:25;5.53;;;3.85;;
70667;SDS011;58242;51.250;-1.118;2022-12-29T11:43:53;7.72;;;4.53;;
70667;SDS011;58242;51.250;-1.118;2022-12-29T11:46:26;9.15;;;4.82;;
70667;SDS011;58242;51.250;-1.118;2022-12-29T11:48:55;9.70;;;4.25;;
70667;SDS011;58242;51.250;-1.118;2022-12-29T11:51:45;7.07;;;4.10;;
70667;SDS011;58242;51.250;-1.118;2022-12-29T11:54:21;4.30;;;3.15;;
70667;SDS011;58242;51.250;-1.118;2022-12-29T11:56:50;6.78;;;4.20;;
70667;SDS011;58242;51.250;-1.118;2022-12-29T12:04:41;9.73;;;4.07;;
70667;SDS011;58242;51.250;-1.118;2022-12-29T12:09:34;4.22;;;3.35;;
70667;SDS011;58242;51.250;-1.118;2022-12-29T12:12:03;11.07;;;4.80;;
70667;SDS011;58242;51.250;-1.118;2022-12-29T12:17:15;5.70;;;3.55;;
70667;SDS011;58242;51.250;-1.118;2022-12-29T12:19:47;4.43;;;3.20;;
70667;SDS011;58242;51.250;-1.118;2022-12-29T12:22:31;5.25;;;3.92;;
70667;SDS011;58242;51.250;-1.118;2022-12-29T12:25:02;6.40;;;4.13;;
70667;SDS011;58242;51.250;-1.118;2022-12-29T12:27:38;6.22;;;3.65;;
70667;SDS011;58242;51.250;-1.118;2022-12-29T12:35:13;9.00;;;4.45;;
70667;SDS011;58242;51.250;-1.118;2022-12-29T12:38:03;10.13;;;4.28;;
70667;SDS011;58242;51.250;-1.118;2022-12-29T12:40:35;8.70;;;4.03;;
70667;SDS011;58242;51.250;-1.118;2022-12-29T12:48:48;6.00;;;3.95;;
70667;SDS011;58242;51.250;-1.118;2022-12-29T13:02:59;4.38;;;3.40;;
70667;SDS011;58242;51.250;-1.118;2022-12-29T13:05:35;6.82;;;3.22;;
70667;SDS011;58242;51.250;-1.118;2022-12-29T13:13:33;6.68;;;3.50;;
70667;SDS011;58242;51.250;-1.118;2022-12-29T13:26:46;10.98;;;3.80;;
70667;SDS011;58242;51.250;-1.118;2022-12-29T13:29:20;7.55;;;3.58;;
70667;SDS011;58242;51.250;-1.118;2022-12-29T13:37:24;4.70;;;3.00;;
70667;SDS011;58242;51.250;-1.118;2022-12-29T13:42:22;5.72;;;3.72;;
70667;SDS011;58242;51.250;-1.118;2022-12-29T13:44:51;9.13;;;4.03;;
70667;SDS011;58242;51.250;-1.118;2022-12-29T13:47:27;8.95;;;3.83;;
70667;SDS011;58242;51.250;-1.118;2022-12-29T13:49:58;9.55;;;4.43;;
70667;SDS011;58242;51.250;-1.118;2022-12-29T14:00:23;5.78;;;3.95;;
70667;SDS011;58242;51.250;-1.118;2022-12-29T14:03:12;5.95;;;3.65;;
70667;SDS011;58242;51.250;-1.118;2022-12-29T14:06:02;6.47;;;3.10;;
70667;SDS011;58242;51.250;-1.118;2022-12-29T14:08:40;10.13;;;3.85;;
70667;SDS011;58242;51.250;-1.118;2022-12-29T14:11:10;6.93;;;3.90;;
70667;SDS011;58242;51.250;-1.118;2022-12-29T14:13:40;7.13;;;3.20;;
70667;SDS011;58242;51.250;-1.118;2022-12-29T14:16:07;4.88;;;2.90;;
70667;SDS011;58242;51.250;-1.118;2022-12-29T14:18:48;7.57;;;3.15;;
70667;SDS011;58242;51.250;-1.118;2022-12-29T14:23:40;6.00;;;3.38;;
70667;SDS011;58242;51.250;-1.118;2022-12-29T14:31:01;5.85;;;3.80;;
70667;SDS011;58242;51.250;-1.118;2022-12-29T14:33:31;4.55;;;3.08;;
70667;SDS011;58242;51.250;-1.118;2022-12-29T14:36:18;12.10;;;3.42;;
70667;SDS011;58242;51.250;-1.118;2022-12-29T14:38:46;6.63;;;2.85;;
70667;SDS011;58242;51.250;-1.118;2022-12-29T14:41:17;6.30;;;4.13;;
70667;SDS011;58242;51.250;-1.118;2022-12-29T14:49:20;7.50;;;3.88;;
70667;SDS011;58242;51.250;-1.118;2022-12-29T14:51:50;4.22;;;3.80;;
70667;SDS011;58242;51.250;-1.118;2022-12-29T14:57:01;4.68;;;4.18;;
70667;SDS011;58242;51.250;-1.118;2022-12-29T14:59:28;7.55;;;4.70;;
70667;SDS011;58242;51.250;-1.118;2022-12-29T15:01:57;6.93;;;3.95;;
70667;SDS011;58242;51.250;-1.118;2022-12-29T15:04:25;4.60;;;4.20;;
70667;SDS011;58242;51.250;-1.118;2022-12-29T15:06:55;5.25;;;2.67;;
70667;SDS011;58242;51.250;-1.118;2022-12-29T15:11:53;5.32;;;3.90;;
70667;SDS011;58242;51.250;-1.118;2022-12-29T15:14:28;5.00;;;3.38;;
70667;SDS011;58242;51.250;-1.118;2022-12-29T15:16:54;5.82;;;2.65;;
70667;SDS011;58242;51.250;-1.118;2022-12-29T15:19:23;7.93;;;3.47;;
70667;SDS011;58242;51.250;-1.118;2022-12-29T15:21:49;5.75;;;3.17;;
70667;SDS011;58242;51.250;-1.118;2022-12-29T15:24:15;3.17;;;2.83;;
70667;SDS011;58242;51.250;-1.118;2022-12-29T15:26:45;5.75;;;2.78;;
70667;SDS011;58242;51.250;-1.118;2022-12-29T15:32:15;4.90;;;3.03;;
70667;SDS011;58242;51.250;-1.118;2022-12-29T15:34:41;4.30;;;3.38;;
70667;SDS011;58242;51.250;-1.118;2022-12-29T15:37:07;5.20;;;3.35;;
70667;SDS011;58242;51.250;-1.118;2022-12-29T15:39:33;5.15;;;3.42;;
70667;SDS011;58242;51.250;-1.118;2022-12-29T15:42:05;4.50;;;3.70;;
70667;SDS011;58242;51.250;-1.118;2022-12-29T15:44:42;6.45;;;3.80;;
70667;SDS011;58242;51.250;-1.118;2022-12-29T15:49:49;6.55;;;4.07;;
70667;SDS011;58242;51.250;-1.118;2022-12-29T15:52:18;6.63;;;3.65;;
70667;SDS011;58242;51.250;-1.118;2022-12-29T15:54:45;7.38;;;3.67;;
70667;SDS011;58242;51.250;-1.118;2022-12-29T15:57:21;6.80;;;3.87;;
70667;SDS011;58242;51.250;-1.118;2022-12-29T15:59:48;7.65;;;4.30;;
70667;SDS011;58242;51.250;-1.118;2022-12-29T16:02:14;8.18;;;3.72;;
70667;SDS011;58242;51.250;-1.118;2022-12-29T16:04:39;6.53;;;3.42;;
70667;SDS011;58242;51.250;-1.118;2022-12-29T16:07:05;6.28;;;3.20;;
70667;SDS011;58242;51.250;-1.118;2022-12-29T16:09:46;4.93;;;3.53;;
70667;SDS011;58242;51.250;-1.118;2022-12-29T16:12:20;5.28;;;3.03;;
70667;SDS011;58242;51.250;-1.118;2022-12-29T16:14:57;3.53;;;2.85;;
70667;SDS011;58242;51.250;-1.118;2022-12-29T16:17:26;3.88;;;2.70;;
70667;SDS011;58242;51.250;-1.118;2022-12-29T16:19:58;6.28;;;3.05;;
70667;SDS011;58242;51.250;-1.118;2022-12-29T16:22:33;6.93;;;3.40;;
70667;SDS011;58242;51.250;-1.118;2022-12-29T16:25:03;4.43;;;3.40;;
70667;SDS011;58242;51.250;-1.118;2022-12-29T16:27:32;7.25;;;3.38;;
70667;SDS011;58242;51.250;-1.118;2022-12-29T16:30:03;6.07;;;3.95;;
70667;SDS011;58242;51.250;-1.118;2022-12-29T16:32:31;5.60;;;3.83;;
70667;SDS011;58242;51.250;-1.118;2022-12-29T16:35:16;4.10;;;3.50;;
70667;SDS011;58242;51.250;-1.118;2022-12-29T16:37:44;5.15;;;3.50;;
70667;SDS011;58242;51.250;-1.118;2022-12-29T16:42:56;7.22;;;3.88;;
70667;SDS011;58242;51.250;-1.118;2022-12-29T16:50:38;6.55;;;3.30;;
70667;SDS011;58242;51.250;-1.118;2022-12-29T16:53:06;3.50;;;2.70;;
70667;SDS011;58242;51.250;-1.118;2022-12-29T16:55:47;9.00;;;3.10;;
70667;SDS011;58242;51.250;-1.118;2022-12-29T16:58:16;4.00;;;3.03;;
70667;SDS011;58242;51.250;-1.118;2022-12-29T17:00:44;4.72;;;2.75;;
70667;SDS011;58242;51.250;-1.118;2022-12-29T17:03:11;5.32;;;2.95;;
70667;SDS011;58242;51.250;-1.118;2022-12-29T17:05:37;5.43;;;3.20;;
70667;SDS011;58242;51.250;-1.118;2022-12-29T17:08:02;4.43;;;3.17;;
70667;SDS011;58242;51.250;-1.118;2022-12-29T17:10:28;6.60;;;3.20;;
70667;SDS011;58242;51.250;-1.118;2022-12-29T17:13:13;6.22;;;3.35;;
70667;SDS011;58242;51.250;-1.118;2022-12-29T17:15:39;3.17;;;2.97;;
70667;SDS011;58242;51.250;-1.118;2022-12-29T17:18:04;2.55;;;2.38;;
70667;SDS011;58242;51.250;-1.118;2022-12-29T17:20:30;3.20;;;2.50;;
70667;SDS011;58242;51.250;-1.118;2022-12-29T17:22:56;5.38;;;2.67;;
70667;SDS011;58242;51.250;-1.118;2022-12-29T17:25:29;2.90;;;2.70;;
70667;SDS011;58242;51.250;-1.118;2022-12-29T17:28:05;3.40;;;2.75;;
70667;SDS011;58242;51.250;-1.118;2022-12-29T17:30:43;2.60;;;2.40;;
70667;SDS011;58242;51.250;-1.118;2022-12-29T17:33:09;3.00;;;2.70;;